createdAt,value
2018-12-21T00:08:32.314Z,59.13
2018-12-21T00:18:35.259Z,57.43
2018-12-21T00:28:37.889Z,54.27
2018-12-21T00:38:46.310Z,58.37
2018-12-21T00:48:49.708Z,54.50
2018-12-21T00:58:52.316Z,56.87
2018-12-21T01:08:54.929Z,55.60
2018-12-21T01:18:57.663Z,54.50
2018-12-21T01:29:00.276Z,52.67
2018-12-21T01:39:03.205Z,51.50
2018-12-21T01:49:06.108Z,52.57
2018-12-21T01:59:08.722Z,52.10
2018-12-21T02:09:11.347Z,49.63
2018-12-21T02:19:14.159Z,48.70
2018-12-21T02:29:16.780Z,47.43
2018-12-21T02:39:19.405Z,52.17
2018-12-21T02:49:22.045Z,49.77
2018-12-21T02:59:24.742Z,50.30
2018-12-21T03:09:27.333Z,47.97
2018-12-21T03:19:29.976Z,48.47
2018-12-21T03:29:32.590Z,47.97
2018-12-21T03:39:35.204Z,44.53
2018-12-21T03:49:37.820Z,47.60
2018-12-21T03:59:40.426Z,47.27
2018-12-21T04:09:43.040Z,46.17
2018-12-21T04:19:45.859Z,46.07
2018-12-21T04:29:48.470Z,44.87
2018-12-21T04:39:51.086Z,46.23
2018-12-21T04:49:53.686Z,47.20
2018-12-21T04:59:56.313Z,49.63
2018-12-21T05:09:58.906Z,50.30
2018-12-21T05:20:01.543Z,49.43
2018-12-21T05:30:06.430Z,48.17
2018-12-21T05:40:09.028Z,47.10
2018-12-21T05:50:11.649Z,48.13
2018-12-21T06:00:14.302Z,49.93
2018-12-21T06:10:16.910Z,48.10
2018-12-21T06:20:19.722Z,46.77
2018-12-21T06:30:22.326Z,46.33
2018-12-21T06:40:24.942Z,52.87
2018-12-21T06:50:27.550Z,47.17
2018-12-21T07:00:30.173Z,44.63
2018-12-21T07:10:32.778Z,45.63
2018-12-21T07:20:35.389Z,44.43
2018-12-21T07:30:38.022Z,69.13
2018-12-21T07:40:40.636Z,48.13
2018-12-21T07:50:43.530Z,45.60
2018-12-21T08:00:46.142Z,46.07
2018-12-21T08:10:49.656Z,42.77
2018-12-21T08:20:52.494Z,42.57
2018-12-21T08:30:55.101Z,41.43
2018-12-21T08:40:57.725Z,40.73
2018-12-21T08:51:00.349Z,49.90
2018-12-21T09:01:03.234Z,43.20
2018-12-21T09:11:05.838Z,45.80
2018-12-21T09:21:08.470Z,40.63
2018-12-21T09:31:11.361Z,46.73
2018-12-21T09:41:13.984Z,53.97
2018-12-21T09:51:16.584Z,42.67
2018-12-21T10:01:19.204Z,39.90
2018-12-21T10:11:21.813Z,41.77
2018-12-21T10:21:24.439Z,40.93
2018-12-21T10:31:27.327Z,34.90
2018-12-21T10:41:29.946Z,32.03
2018-12-21T10:51:32.549Z,30.37
2018-12-21T11:01:35.151Z,38.65
2018-12-21T11:11:38.054Z,26.47
2018-12-21T11:21:40.722Z,26.83
2018-12-21T11:31:43.341Z,28.27
2018-12-21T11:41:45.951Z,25.57
2018-12-21T11:51:48.558Z,23.73
2018-12-21T12:01:51.301Z,22.80
2018-12-21T12:11:53.919Z,24.37
2018-12-21T12:21:56.540Z,23.13
2018-12-21T12:31:59.158Z,26.53
2018-12-21T12:42:03.650Z,40.03
2018-12-21T12:52:06.431Z,27.83
2018-12-21T13:02:09.333Z,25.57
2018-12-21T13:12:11.940Z,25.93
2018-12-21T13:22:14.538Z,25.97
2018-12-21T13:32:17.524Z,26.47
2018-12-21T13:42:20.122Z,41.60
2018-12-21T13:52:23.098Z,40.33
2018-12-21T14:02:25.910Z,49.40
2018-12-21T14:12:28.852Z,41.00
2018-12-21T14:22:31.546Z,31.60
2018-12-21T14:32:34.170Z,34.93
2018-12-21T14:42:37.264Z,35.43
2018-12-21T14:52:39.896Z,39.00
2018-12-21T15:02:42.622Z,27.50
2018-12-21T15:12:45.240Z,27.40
2018-12-21T15:22:47.957Z,24.77
2018-12-21T15:32:50.584Z,25.93
2018-12-21T15:42:53.531Z,29.47
2018-12-21T15:52:56.131Z,31.70
2018-12-21T16:02:58.747Z,34.30
2018-12-21T16:13:01.448Z,41.13
2018-12-21T16:23:04.113Z,41.17
2018-12-21T16:33:06.772Z,44.90
2018-12-21T16:43:09.430Z,48.80
2018-12-21T16:53:12.050Z,51.20
2018-12-21T17:03:15.673Z,46.97
2018-12-21T17:13:18.638Z,52.80
2018-12-21T17:23:21.667Z,56.90
2018-12-21T17:33:24.608Z,58.93
2018-12-21T17:43:27.237Z,60.63
2018-12-21T17:53:29.863Z,62.50
2018-12-21T18:03:32.646Z,67.07
2018-12-21T18:13:35.256Z,61.50
2018-12-21T18:23:38.472Z,59.17
2018-12-21T18:33:42.948Z,58.17
2018-12-21T18:43:45.561Z,60.87
2018-12-21T18:53:48.158Z,64.33
2018-12-21T19:03:50.786Z,58.63
2018-12-21T19:13:53.408Z,59.77
2018-12-21T19:23:56.498Z,60.00
2018-12-21T19:33:59.110Z,60.23
2018-12-21T19:44:01.757Z,52.83
2018-12-21T19:54:04.365Z,52.80
2018-12-21T20:04:06.985Z,52.97
2018-12-21T20:14:09.638Z,53.87
2018-12-21T20:24:12.381Z,55.00
2018-12-21T20:34:15.005Z,52.77
2018-12-21T20:44:17.606Z,56.77
2018-12-21T20:54:20.259Z,58.90
2018-12-21T21:04:22.863Z,53.83
2018-12-21T21:14:25.478Z,53.93
2018-12-21T21:24:28.216Z,54.97
2018-12-21T21:34:30.840Z,52.17
2018-12-21T21:44:33.464Z,54.30
2018-12-21T21:54:36.073Z,51.43
2018-12-21T22:04:38.680Z,49.80
2018-12-21T22:14:41.298Z,50.70
2018-12-21T22:24:43.962Z,49.63
2018-12-21T22:34:46.561Z,50.27
2018-12-21T22:44:49.169Z,52.27
2018-12-21T22:54:51.775Z,50.37
2018-12-21T23:04:54.392Z,50.17
2018-12-21T23:14:56.994Z,51.00
2018-12-21T23:24:59.589Z,53.57
2018-12-21T23:35:02.235Z,54.67
2018-12-21T23:45:05.630Z,53.17
2018-12-21T23:55:08.517Z,49.13
